sensor_id;sensor_type;location;lat;lon;timestamp;P1;durP1;ratioP1;P2;durP2;ratioP2
53391;SDS011;41667;51.922;8.850;2023-03-14T00:01:29;3.30;;;1.70;;
53391;SDS011;41667;51.922;8.850;2023-03-14T00:03:54;6.43;;;1.13;;
53391;SDS011;41667;51.922;8.850;2023-03-14T00:06:19;0.93;;;0.73;;
53391;SDS011;41667;51.922;8.850;2023-03-14T00:08:45;4.30;;;1.27;;
53391;SDS011;41667;51.922;8.850;2023-03-14T00:11:14;3.70;;;1.10;;
53391;SDS011;41667;51.922;8.850;2023-03-14T00:13:40;3.80;;;1.08;;
53391;SDS011;41667;51.922;8.850;2023-03-14T00:16:06;6.57;;;1.27;;
53391;SDS011;41667;51.922;8.850;2023-03-14T00:18:32;1.58;;;0.90;;
53391;SDS011;41667;51.922;8.850;2023-03-14T00:20:58;3.30;;;1.20;;
53391;SDS011;41667;51.922;8.850;2023-03-14T00:23:24;3.13;;;1.05;;
53391;SDS011;41667;51.922;8.850;2023-03-14T00:25:49;3.38;;;0.93;;
53391;SDS011;41667;51.922;8.850;2023-03-14T00:28:14;3.15;;;1.45;;
53391;SDS011;41667;51.922;8.850;2023-03-14T00:30:39;2.53;;;1.02;;
53391;SDS011;41667;51.922;8.850;2023-03-14T00:33:04;2.77;;;1.20;;
53391;SDS011;41667;51.922;8.850;2023-03-14T00:35:29;4.70;;;1.10;;
53391;SDS011;41667;51.922;8.850;2023-03-14T00:37:54;3.55;;;1.35;;
53391;SDS011;41667;51.922;8.850;2023-03-14T00:40:20;4.13;;;1.10;;
53391;SDS011;41667;51.922;8.850;2023-03-14T00:42:45;2.25;;;1.05;;
53391;SDS011;41667;51.922;8.850;2023-03-14T00:45:10;1.65;;;0.90;;
53391;SDS011;41667;51.922;8.850;2023-03-14T00:47:35;3.50;;;1.07;;
53391;SDS011;41667;51.922;8.850;2023-03-14T00:50:00;3.97;;;1.13;;
53391;SDS011;41667;51.922;8.850;2023-03-14T00:52:26;3.65;;;1.70;;
53391;SDS011;41667;51.922;8.850;2023-03-14T00:54:51;5.95;;;1.35;;
53391;SDS011;41667;51.922;8.850;2023-03-14T00:57:16;1.92;;;1.25;;
53391;SDS011;41667;51.922;8.850;2023-03-14T00:59:41;2.80;;;1.15;;
53391;SDS011;41667;51.922;8.850;2023-03-14T01:02:06;2.97;;;1.10;;
53391;SDS011;41667;51.922;8.850;2023-03-14T01:04:31;1.10;;;1.00;;
53391;SDS011;41667;51.922;8.850;2023-03-14T01:06:56;1.30;;;1.13;;
53391;SDS011;41667;51.922;8.850;2023-03-14T01:09:22;1.77;;;1.40;;
53391;SDS011;41667;51.922;8.850;2023-03-14T01:11:47;4.10;;;0.90;;
53391;SDS011;41667;51.922;8.850;2023-03-14T01:14:12;2.30;;;1.00;;
53391;SDS011;41667;51.922;8.850;2023-03-14T01:16:37;5.05;;;1.23;;
53391;SDS011;41667;51.922;8.850;2023-03-14T01:19:02;1.65;;;1.13;;
53391;SDS011;41667;51.922;8.850;2023-03-14T01:21:29;2.47;;;0.97;;
53391;SDS011;41667;51.922;8.850;2023-03-14T01:23:55;2.63;;;1.00;;
53391;SDS011;41667;51.922;8.850;2023-03-14T01:26:21;3.55;;;1.35;;
53391;SDS011;41667;51.922;8.850;2023-03-14T01:28:47;3.08;;;1.98;;
53391;SDS011;41667;51.922;8.850;2023-03-14T01:31:13;3.47;;;1.23;;
53391;SDS011;41667;51.922;8.850;2023-03-14T01:33:38;3.03;;;0.95;;
53391;SDS011;41667;51.922;8.850;2023-03-14T01:36:04;1.48;;;1.13;;
53391;SDS011;41667;51.922;8.850;2023-03-14T01:38:30;4.05;;;1.08;;
53391;SDS011;41667;51.922;8.850;2023-03-14T01:40:55;3.03;;;1.00;;
53391;SDS011;41667;51.922;8.850;2023-03-14T01:43:21;2.53;;;1.10;;
53391;SDS011;41667;51.922;8.850;2023-03-14T01:48:35;2.22;;;1.20;;
53391;SDS011;41667;51.922;8.850;2023-03-14T01:51:00;1.10;;;0.90;;
53391;SDS011;41667;51.922;8.850;2023-03-14T01:53:26;3.92;;;1.20;;
53391;SDS011;41667;51.922;8.850;2023-03-14T01:55:52;7.20;;;1.35;;
53391;SDS011;41667;51.922;8.850;2023-03-14T01:58:17;2.33;;;1.02;;
53391;SDS011;41667;51.922;8.850;2023-03-14T02:00:44;1.60;;;1.00;;
53391;SDS011;41667;51.922;8.850;2023-03-14T02:03:11;2.30;;;0.98;;
53391;SDS011;41667;51.922;8.850;2023-03-14T02:05:38;1.48;;;1.10;;
53391;SDS011;41667;51.922;8.850;2023-03-14T02:08:06;3.45;;;1.00;;
53391;SDS011;41667;51.922;8.850;2023-03-14T02:10:32;2.78;;;1.10;;
53391;SDS011;41667;51.922;8.850;2023-03-14T02:12:59;3.63;;;1.00;;
53391;SDS011;41667;51.922;8.850;2023-03-14T02:15:24;1.33;;;1.13;;
53391;SDS011;41667;51.922;8.850;2023-03-14T02:17:49;2.33;;;1.00;;
53391;SDS011;41667;51.922;8.850;2023-03-14T02:20:24;3.40;;;0.70;;
53391;SDS011;41667;51.922;8.850;2023-03-14T02:22:52;1.73;;;1.05;;
53391;SDS011;41667;51.922;8.850;2023-03-14T02:25:33;2.15;;;1.08;;
53391;SDS011;41667;51.922;8.850;2023-03-14T02:27:59;3.73;;;1.30;;
53391;SDS011;41667;51.922;8.850;2023-03-14T02:30:26;2.00;;;0.77;;
53391;SDS011;41667;51.922;8.850;2023-03-14T02:32:58;2.70;;;1.15;;
53391;SDS011;41667;51.922;8.850;2023-03-14T02:35:29;1.77;;;0.90;;
53391;SDS011;41667;51.922;8.850;2023-03-14T02:38:03;3.03;;;0.82;;
53391;SDS011;41667;51.922;8.850;2023-03-14T02:40:32;6.55;;;1.27;;
53391;SDS011;41667;51.922;8.850;2023-03-14T02:42:57;3.17;;;1.47;;
53391;SDS011;41667;51.922;8.850;2023-03-14T02:47:57;1.27;;;0.70;;
53391;SDS011;41667;51.922;8.850;2023-03-14T02:50:24;1.85;;;0.88;;
53391;SDS011;41667;51.922;8.850;2023-03-14T02:52:51;2.50;;;1.15;;
53391;SDS011;41667;51.922;8.850;2023-03-14T02:55:23;1.53;;;1.10;;
53391;SDS011;41667;51.922;8.850;2023-03-14T02:57:48;1.75;;;1.65;;
53391;SDS011;41667;51.922;8.850;2023-03-14T03:00:13;2.92;;;1.10;;
53391;SDS011;41667;51.922;8.850;2023-03-14T03:02:39;0.60;;;0.60;;
53391;SDS011;41667;51.922;8.850;2023-03-14T03:05:04;2.42;;;0.80;;
53391;SDS011;41667;51.922;8.850;2023-03-14T03:07:30;1.17;;;0.90;;
53391;SDS011;41667;51.922;8.850;2023-03-14T03:09:55;2.65;;;0.82;;
53391;SDS011;41667;51.922;8.850;2023-03-14T03:12:20;3.97;;;1.52;;
53391;SDS011;41667;51.922;8.850;2023-03-14T03:14:45;4.40;;;1.40;;
53391;SDS011;41667;51.922;8.850;2023-03-14T03:17:11;4.55;;;1.48;;
53391;SDS011;41667;51.922;8.850;2023-03-14T03:19:36;2.23;;;1.17;;
53391;SDS011;41667;51.922;8.850;2023-03-14T03:22:01;3.63;;;0.50;;
53391;SDS011;41667;51.922;8.850;2023-03-14T03:24:26;0.33;;;0.33;;
53391;SDS011;41667;51.922;8.850;2023-03-14T03:26:52;0.47;;;0.47;;
53391;SDS011;41667;51.922;8.850;2023-03-14T03:29:17;1.80;;;0.57;;
53391;SDS011;41667;51.922;8.850;2023-03-14T03:31:42;1.73;;;0.60;;
53391;SDS011;41667;51.922;8.850;2023-03-14T03:34:10;4.63;;;0.50;;
53391;SDS011;41667;51.922;8.850;2023-03-14T03:36:35;1.33;;;0.50;;
53391;SDS011;41667;51.922;8.850;2023-03-14T03:39:00;0.65;;;0.40;;
53391;SDS011;41667;51.922;8.850;2023-03-14T03:41:25;1.35;;;0.50;;
53391;SDS011;41667;51.922;8.850;2023-03-14T03:43:50;0.50;;;0.50;;
53391;SDS011;41667;51.922;8.850;2023-03-14T03:46:16;1.30;;;0.38;;
53391;SDS011;41667;51.922;8.850;2023-03-14T03:48:41;4.28;;;0.85;;
53391;SDS011;41667;51.922;8.850;2023-03-14T03:51:06;3.00;;;0.73;;
53391;SDS011;41667;51.922;8.850;2023-03-14T03:53:31;0.63;;;0.50;;
53391;SDS011;41667;51.922;8.850;2023-03-14T03:55:56;1.27;;;0.60;;
53391;SDS011;41667;51.922;8.850;2023-03-14T03:58:21;0.52;;;0.45;;
53391;SDS011;41667;51.922;8.850;2023-03-14T04:00:47;0.97;;;0.50;;
53391;SDS011;41667;51.922;8.850;2023-03-14T04:03:12;1.87;;;0.80;;
53391;SDS011;41667;51.922;8.850;2023-03-14T04:05:37;1.00;;;0.50;;
53391;SDS011;41667;51.922;8.850;2023-03-14T04:08:02;3.70;;;0.50;;
53391;SDS011;41667;51.922;8.850;2023-03-14T04:10:28;2.80;;;0.63;;
53391;SDS011;41667;51.922;8.850;2023-03-14T04:12:53;3.67;;;0.98;;
53391;SDS011;41667;51.922;8.850;2023-03-14T04:15:19;2.08;;;0.70;;
53391;SDS011;41667;51.922;8.850;2023-03-14T04:17:44;3.75;;;1.15;;
53391;SDS011;41667;51.922;8.850;2023-03-14T04:20:09;2.50;;;0.90;;
53391;SDS011;41667;51.922;8.850;2023-03-14T04:22:36;5.00;;;0.85;;
53391;SDS011;41667;51.922;8.850;2023-03-14T04:25:01;1.52;;;0.75;;
53391;SDS011;41667;51.922;8.850;2023-03-14T04:27:28;4.20;;;0.88;;
53391;SDS011;41667;51.922;8.850;2023-03-14T04:29:53;1.33;;;0.80;;
53391;SDS011;41667;51.922;8.850;2023-03-14T04:32:18;1.65;;;0.75;;
53391;SDS011;41667;51.922;8.850;2023-03-14T04:34:44;1.98;;;0.70;;
53391;SDS011;41667;51.922;8.850;2023-03-14T04:37:09;0.63;;;0.60;;
53391;SDS011;41667;51.922;8.850;2023-03-14T04:39:34;0.83;;;0.60;;
53391;SDS011;41667;51.922;8.850;2023-03-14T04:41:59;1.10;;;0.98;;
53391;SDS011;41667;51.922;8.850;2023-03-14T04:44:24;1.67;;;1.13;;
53391;SDS011;41667;51.922;8.850;2023-03-14T04:46:49;1.47;;;0.70;;
53391;SDS011;41667;51.922;8.850;2023-03-14T04:49:14;4.27;;;0.87;;
53391;SDS011;41667;51.922;8.850;2023-03-14T04:51:40;1.55;;;0.63;;
53391;SDS011;41667;51.922;8.850;2023-03-14T04:54:05;3.33;;;0.70;;
53391;SDS011;41667;51.922;8.850;2023-03-14T04:56:30;3.75;;;0.88;;
53391;SDS011;41667;51.922;8.850;2023-03-14T04:58:55;2.20;;;0.57;;
53391;SDS011;41667;51.922;8.850;2023-03-14T05:01:21;1.80;;;0.87;;
53391;SDS011;41667;51.922;8.850;2023-03-14T05:03:46;3.85;;;0.80;;
53391;SDS011;41667;51.922;8.850;2023-03-14T05:06:11;0.57;;;0.57;;
53391;SDS011;41667;51.922;8.850;2023-03-14T05:08:36;1.05;;;0.98;;
53391;SDS011;41667;51.922;8.850;2023-03-14T05:11:01;4.18;;;0.73;;
53391;SDS011;41667;51.922;8.850;2023-03-14T05:13:27;2.72;;;0.70;;
53391;SDS011;41667;51.922;8.850;2023-03-14T05:15:53;1.43;;;0.70;;
53391;SDS011;41667;51.922;8.850;2023-03-14T05:18:20;1.75;;;0.95;;
53391;SDS011;41667;51.922;8.850;2023-03-14T05:20:45;3.13;;;0.80;;
53391;SDS011;41667;51.922;8.850;2023-03-14T05:23:10;2.20;;;0.90;;
53391;SDS011;41667;51.922;8.850;2023-03-14T05:25:35;6.75;;;1.00;;
53391;SDS011;41667;51.922;8.850;2023-03-14T05:28:00;3.33;;;0.93;;
53391;SDS011;41667;51.922;8.850;2023-03-14T05:30:25;3.97;;;0.68;;
53391;SDS011;41667;51.922;8.850;2023-03-14T05:32:52;0.68;;;0.68;;
53391;SDS011;41667;51.922;8.850;2023-03-14T05:35:18;0.60;;;0.60;;
53391;SDS011;41667;51.922;8.850;2023-03-14T05:37:43;2.67;;;0.57;;
53391;SDS011;41667;51.922;8.850;2023-03-14T05:40:08;7.45;;;0.82;;
53391;SDS011;41667;51.922;8.850;2023-03-14T05:42:33;0.60;;;0.60;;
53391;SDS011;41667;51.922;8.850;2023-03-14T05:44:58;2.63;;;0.53;;
53391;SDS011;41667;51.922;8.850;2023-03-14T05:47:24;2.58;;;0.70;;
53391;SDS011;41667;51.922;8.850;2023-03-14T05:49:49;4.82;;;0.98;;
53391;SDS011;41667;51.922;8.850;2023-03-14T05:52:14;2.00;;;0.77;;
53391;SDS011;41667;51.922;8.850;2023-03-14T05:54:39;0.68;;;0.68;;
53391;SDS011;41667;51.922;8.850;2023-03-14T05:57:04;2.03;;;0.85;;
53391;SDS011;41667;51.922;8.850;2023-03-14T05:59:29;0.90;;;0.90;;
53391;SDS011;41667;51.922;8.850;2023-03-14T06:01:55;6.15;;;0.98;;
53391;SDS011;41667;51.922;8.850;2023-03-14T06:04:20;2.25;;;0.93;;
53391;SDS011;41667;51.922;8.850;2023-03-14T06:06:45;1.55;;;0.70;;
53391;SDS011;41667;51.922;8.850;2023-03-14T06:09:10;1.30;;;1.10;;
53391;SDS011;41667;51.922;8.850;2023-03-14T06:11:35;2.38;;;0.80;;
53391;SDS011;41667;51.922;8.850;2023-03-14T06:14:00;2.65;;;0.82;;
53391;SDS011;41667;51.922;8.850;2023-03-14T06:16:25;2.73;;;0.70;;
53391;SDS011;41667;51.922;8.850;2023-03-14T06:18:50;0.75;;;0.75;;
53391;SDS011;41667;51.922;8.850;2023-03-14T06:21:17;1.27;;;1.05;;
53391;SDS011;41667;51.922;8.850;2023-03-14T06:23:42;0.70;;;0.70;;
53391;SDS011;41667;51.922;8.850;2023-03-14T06:26:07;1.53;;;0.93;;
53391;SDS011;41667;51.922;8.850;2023-03-14T06:28:32;2.38;;;1.20;;
53391;SDS011;41667;51.922;8.850;2023-03-14T06:30:58;2.63;;;0.95;;
53391;SDS011;41667;51.922;8.850;2023-03-14T06:33:23;0.70;;;0.70;;
53391;SDS011;41667;51.922;8.850;2023-03-14T06:35:48;5.10;;;1.20;;
53391;SDS011;41667;51.922;8.850;2023-03-14T06:38:13;0.90;;;0.90;;
53391;SDS011;41667;51.922;8.850;2023-03-14T06:40:38;0.60;;;0.60;;
53391;SDS011;41667;51.922;8.850;2023-03-14T06:43:03;1.40;;;1.00;;
53391;SDS011;41667;51.922;8.850;2023-03-14T06:45:29;0.82;;;0.68;;
53391;SDS011;41667;51.922;8.850;2023-03-14T06:47:54;4.43;;;0.85;;
53391;SDS011;41667;51.922;8.850;2023-03-14T06:50:19;3.28;;;0.60;;
53391;SDS011;41667;51.922;8.850;2023-03-14T06:52:44;0.50;;;0.50;;
53391;SDS011;41667;51.922;8.850;2023-03-14T06:55:12;4.68;;;0.63;;
53391;SDS011;41667;51.922;8.850;2023-03-14T06:57:38;0.60;;;0.60;;
53391;SDS011;41667;51.922;8.850;2023-03-14T07:00:03;2.55;;;1.75;;
53391;SDS011;41667;51.922;8.850;2023-03-14T07:02:29;1.73;;;1.23;;
53391;SDS011;41667;51.922;8.850;2023-03-14T07:04:54;0.87;;;0.87;;
53391;SDS011;41667;51.922;8.850;2023-03-14T07:07:19;1.52;;;0.90;;
53391;SDS011;41667;51.922;8.850;2023-03-14T07:09:44;1.45;;;0.38;;
53391;SDS011;41667;51.922;8.850;2023-03-14T07:12:09;0.95;;;0.80;;
53391;SDS011;41667;51.922;8.850;2023-03-14T07:14:34;4.57;;;0.40;;
53391;SDS011;41667;51.922;8.850;2023-03-14T07:16:59;0.85;;;0.60;;
53391;SDS011;41667;51.922;8.850;2023-03-14T07:19:25;0.45;;;0.45;;
53391;SDS011;41667;51.922;8.850;2023-03-14T07:21:50;0.50;;;0.50;;
53391;SDS011;41667;51.922;8.850;2023-03-14T07:24:15;0.68;;;0.50;;
53391;SDS011;41667;51.922;8.850;2023-03-14T07:26:40;0.50;;;0.50;;
53391;SDS011;41667;51.922;8.850;2023-03-14T07:29:05;1.80;;;0.50;;
53391;SDS011;41667;51.922;8.850;2023-03-14T07:31:30;0.75;;;0.60;;
53391;SDS011;41667;51.922;8.850;2023-03-14T07:33:56;0.85;;;0.70;;
53391;SDS011;41667;51.922;8.850;2023-03-14T07:36:21;1.57;;;0.70;;
53391;SDS011;41667;51.922;8.850;2023-03-14T07:38:46;1.15;;;0.90;;
53391;SDS011;41667;51.922;8.850;2023-03-14T07:41:12;0.82;;;0.82;;
53391;SDS011;41667;51.922;8.850;2023-03-14T07:43:37;1.67;;;1.20;;
53391;SDS011;41667;51.922;8.850;2023-03-14T07:46:02;1.10;;;1.10;;
53391;SDS011;41667;51.922;8.850;2023-03-14T07:48:27;3.17;;;1.30;;
53391;SDS011;41667;51.922;8.850;2023-03-14T07:50:53;2.03;;;1.83;;
53391;SDS011;41667;51.922;8.850;2023-03-14T07:53:18;4.88;;;1.88;;
53391;SDS011;41667;51.922;8.850;2023-03-14T07:55:43;1.80;;;1.70;;
53391;SDS011;41667;51.922;8.850;2023-03-14T07:58:09;1.80;;;1.70;;
53391;SDS011;41667;51.922;8.850;2023-03-14T08:00:34;3.90;;;1.88;;
53391;SDS011;41667;51.922;8.850;2023-03-14T08:02:59;1.60;;;1.50;;
53391;SDS011;41667;51.922;8.850;2023-03-14T08:05:24;2.22;;;1.80;;
53391;SDS011;41667;51.922;8.850;2023-03-14T08:07:49;1.70;;;1.60;;
53391;SDS011;41667;51.922;8.850;2023-03-14T08:10:14;3.67;;;1.55;;
53391;SDS011;41667;51.922;8.850;2023-03-14T08:12:53;0.82;;;0.82;;
53391;SDS011;41667;51.922;8.850;2023-03-14T08:15:19;1.60;;;1.50;;
53391;SDS011;41667;51.922;8.850;2023-03-14T08:17:44;2.85;;;1.33;;
53391;SDS011;41667;51.922;8.850;2023-03-14T08:20:09;2.27;;;1.33;;
53391;SDS011;41667;51.922;8.850;2023-03-14T08:22:36;1.48;;;0.80;;
53391;SDS011;41667;51.922;8.850;2023-03-14T08:25:01;5.57;;;1.20;;
53391;SDS011;41667;51.922;8.850;2023-03-14T08:27:27;1.23;;;1.10;;
53391;SDS011;41667;51.922;8.850;2023-03-14T08:29:52;1.20;;;0.80;;
53391;SDS011;41667;51.922;8.850;2023-03-14T08:32:17;2.92;;;1.00;;
53391;SDS011;41667;51.922;8.850;2023-03-14T08:34:42;2.17;;;1.10;;
53391;SDS011;41667;51.922;8.850;2023-03-14T08:37:07;1.65;;;1.05;;
53391;SDS011;41667;51.922;8.850;2023-03-14T08:39:32;1.58;;;0.90;;
53391;SDS011;41667;51.922;8.850;2023-03-14T08:41:58;2.72;;;0.88;;
53391;SDS011;41667;51.922;8.850;2023-03-14T08:44:23;1.88;;;0.65;;
53391;SDS011;41667;51.922;8.850;2023-03-14T08:46:48;1.25;;;0.60;;
53391;SDS011;41667;51.922;8.850;2023-03-14T08:49:13;0.60;;;0.60;;
53391;SDS011;41667;51.922;8.850;2023-03-14T08:51:39;0.60;;;0.60;;
53391;SDS011;41667;51.922;8.850;2023-03-14T08:54:04;0.63;;;0.63;;
53391;SDS011;41667;51.922;8.850;2023-03-14T08:56:29;0.60;;;0.60;;
53391;SDS011;41667;51.922;8.850;2023-03-14T08:58:55;0.67;;;0.67;;
53391;SDS011;41667;51.922;8.850;2023-03-14T09:01:20;0.70;;;0.70;;
53391;SDS011;41667;51.922;8.850;2023-03-14T09:03:48;0.60;;;0.60;;
53391;SDS011;41667;51.922;8.850;2023-03-14T09:06:14;0.50;;;0.50;;
53391;SDS011;41667;51.922;8.850;2023-03-14T09:08:42;1.90;;;0.60;;
53391;SDS011;41667;51.922;8.850;2023-03-14T09:11:08;1.15;;;0.60;;
53391;SDS011;41667;51.922;8.850;2023-03-14T09:13:33;0.70;;;0.60;;
53391;SDS011;41667;51.922;8.850;2023-03-14T09:15:58;2.73;;;0.73;;
53391;SDS011;41667;51.922;8.850;2023-03-14T09:18:23;0.65;;;0.60;;
53391;SDS011;41667;51.922;8.850;2023-03-14T09:20:49;1.48;;;0.82;;
53391;SDS011;41667;51.922;8.850;2023-03-14T09:23:15;0.50;;;0.50;;
53391;SDS011;41667;51.922;8.850;2023-03-14T09:25:40;0.65;;;0.65;;
53391;SDS011;41667;51.922;8.850;2023-03-14T09:28:05;1.60;;;0.80;;
53391;SDS011;41667;51.922;8.850;2023-03-14T09:30:30;0.98;;;0.70;;
53391;SDS011;41667;51.922;8.850;2023-03-14T09:32:56;0.70;;;0.70;;
53391;SDS011;41667;51.922;8.850;2023-03-14T09:35:22;0.70;;;0.70;;
53391;SDS011;41667;51.922;8.850;2023-03-14T09:37:47;2.38;;;0.60;;
53391;SDS011;41667;51.922;8.850;2023-03-14T09:40:14;1.10;;;0.60;;
53391;SDS011;41667;51.922;8.850;2023-03-14T09:42:40;0.60;;;0.60;;
53391;SDS011;41667;51.922;8.850;2023-03-14T09:45:07;0.50;;;0.50;;
53391;SDS011;41667;51.922;8.850;2023-03-14T09:47:35;0.50;;;0.50;;
53391;SDS011;41667;51.922;8.850;2023-03-14T09:50:00;0.60;;;0.60;;
53391;SDS011;41667;51.922;8.850;2023-03-14T09:52:27;0.40;;;0.40;;
53391;SDS011;41667;51.922;8.850;2023-03-14T09:54:53;0.40;;;0.40;;
53391;SDS011;41667;51.922;8.850;2023-03-14T09:57:20;0.70;;;0.60;;
53391;SDS011;41667;51.922;8.850;2023-03-14T09:59:46;0.52;;;0.52;;
53391;SDS011;41667;51.922;8.850;2023-03-14T10:02:17;0.63;;;0.60;;
53391;SDS011;41667;51.922;8.850;2023-03-14T10:04:44;0.50;;;0.50;;
53391;SDS011;41667;51.922;8.850;2023-03-14T10:07:11;0.85;;;0.85;;
53391;SDS011;41667;51.922;8.850;2023-03-14T10:09:37;0.70;;;0.70;;
53391;SDS011;41667;51.922;8.850;2023-03-14T10:12:02;0.60;;;0.60;;
53391;SDS011;41667;51.922;8.850;2023-03-14T10:14:32;0.90;;;0.90;;
53391;SDS011;41667;51.922;8.850;2023-03-14T10:17:04;1.15;;;0.90;;
53391;SDS011;41667;51.922;8.850;2023-03-14T10:21:54;0.70;;;0.70;;
53391;SDS011;41667;51.922;8.850;2023-03-14T10:24:21;0.90;;;0.90;;
53391;SDS011;41667;51.922;8.850;2023-03-14T10:27:08;0.90;;;0.77;;
53391;SDS011;41667;51.922;8.850;2023-03-14T10:29:35;1.00;;;1.00;;
53391;SDS011;41667;51.922;8.850;2023-03-14T10:32:18;0.88;;;0.88;;
53391;SDS011;41667;51.922;8.850;2023-03-14T10:34:44;0.75;;;0.75;;
53391;SDS011;41667;51.922;8.850;2023-03-14T10:37:22;1.10;;;1.10;;
53391;SDS011;41667;51.922;8.850;2023-03-14T10:39:48;1.20;;;1.10;;
53391;SDS011;41667;51.922;8.850;2023-03-14T10:42:18;1.42;;;1.33;;
53391;SDS011;41667;51.922;8.850;2023-03-14T10:44:44;1.10;;;1.10;;
53391;SDS011;41667;51.922;8.850;2023-03-14T10:47:15;1.30;;;1.20;;
53391;SDS011;41667;51.922;8.850;2023-03-14T10:49:41;1.52;;;1.42;;
53391;SDS011;41667;51.922;8.850;2023-03-14T10:52:14;2.33;;;1.40;;
53391;SDS011;41667;51.922;8.850;2023-03-14T10:54:39;2.03;;;1.80;;
53391;SDS011;41667;51.922;8.850;2023-03-14T10:57:04;3.40;;;2.47;;
53391;SDS011;41667;51.922;8.850;2023-03-14T10:59:35;1.63;;;1.52;;
53391;SDS011;41667;51.922;8.850;2023-03-14T11:02:15;2.17;;;2.08;;
53391;SDS011;41667;51.922;8.850;2023-03-14T11:09:58;1.00;;;1.00;;
53391;SDS011;41667;51.922;8.850;2023-03-14T11:17:59;0.80;;;0.80;;
53391;SDS011;41667;51.922;8.850;2023-03-14T11:25:59;0.75;;;0.75;;
53391;SDS011;41667;51.922;8.850;2023-03-14T11:28:28;0.80;;;0.80;;
53391;SDS011;41667;51.922;8.850;2023-03-14T11:30:58;2.78;;;0.90;;
53391;SDS011;41667;51.922;8.850;2023-03-14T11:33:27;0.77;;;0.75;;
53391;SDS011;41667;51.922;8.850;2023-03-14T11:36:07;0.50;;;0.50;;
53391;SDS011;41667;51.922;8.850;2023-03-14T11:38:35;0.68;;;0.68;;
53391;SDS011;41667;51.922;8.850;2023-03-14T11:41:02;0.90;;;0.90;;
53391;SDS011;41667;51.922;8.850;2023-03-14T11:46:16;0.75;;;0.70;;
53391;SDS011;41667;51.922;8.850;2023-03-14T11:48:44;0.52;;;0.52;;
53391;SDS011;41667;51.922;8.850;2023-03-14T11:51:15;0.40;;;0.40;;
53391;SDS011;41667;51.922;8.850;2023-03-14T11:53:50;0.60;;;0.60;;
53391;SDS011;41667;51.922;8.850;2023-03-14T11:56:18;1.20;;;0.60;;
53391;SDS011;41667;51.922;8.850;2023-03-14T11:58:50;0.80;;;0.80;;
53391;SDS011;41667;51.922;8.850;2023-03-14T12:04:25;0.65;;;0.65;;
53391;SDS011;41667;51.922;8.850;2023-03-14T12:06:44;0.88;;;0.88;;
53391;SDS011;41667;51.922;8.850;2023-03-14T12:09:10;1.45;;;0.57;;
53391;SDS011;41667;51.922;8.850;2023-03-14T12:11:44;0.80;;;0.80;;
53391;SDS011;41667;51.922;8.850;2023-03-14T12:14:28;0.90;;;0.90;;
53391;SDS011;41667;51.922;8.850;2023-03-14T12:17:40;0.80;;;0.63;;
53391;SDS011;41667;51.922;8.850;2023-03-14T12:19:40;1.05;;;0.93;;
53391;SDS011;41667;51.922;8.850;2023-03-14T12:24:48;0.90;;;0.90;;
53391;SDS011;41667;51.922;8.850;2023-03-14T12:27:40;1.15;;;1.15;;
53391;SDS011;41667;51.922;8.850;2023-03-14T12:30:00;1.08;;;1.08;;
53391;SDS011;41667;51.922;8.850;2023-03-14T12:32:26;2.50;;;0.93;;
53391;SDS011;41667;51.922;8.850;2023-03-14T12:34:51;2.00;;;1.25;;
53391;SDS011;41667;51.922;8.850;2023-03-14T12:37:18;4.22;;;1.23;;
53391;SDS011;41667;51.922;8.850;2023-03-14T12:42:14;1.80;;;1.70;;
53391;SDS011;41667;51.922;8.850;2023-03-14T12:49:41;4.63;;;1.70;;
53391;SDS011;41667;51.922;8.850;2023-03-14T12:52:12;5.53;;;2.35;;
53391;SDS011;41667;51.922;8.850;2023-03-14T12:54:40;5.32;;;2.05;;
53391;SDS011;41667;51.922;8.850;2023-03-14T12:57:15;6.53;;;1.77;;
53391;SDS011;41667;51.922;8.850;2023-03-14T12:59:58;5.22;;;2.05;;
53391;SDS011;41667;51.922;8.850;2023-03-14T13:02:25;5.57;;;2.65;;
53391;SDS011;41667;51.922;8.850;2023-03-14T13:05:05;6.00;;;1.77;;
53391;SDS011;41667;51.922;8.850;2023-03-14T13:12:37;4.97;;;1.70;;
53391;SDS011;41667;51.922;8.850;2023-03-14T13:15:11;1.88;;;1.45;;
53391;SDS011;41667;51.922;8.850;2023-03-14T13:17:39;3.33;;;1.50;;
53391;SDS011;41667;51.922;8.850;2023-03-14T13:20:12;9.15;;;2.30;;
53391;SDS011;41667;51.922;8.850;2023-03-14T13:22:39;3.25;;;1.42;;
53391;SDS011;41667;51.922;8.850;2023-03-14T13:25:10;2.75;;;1.45;;
53391;SDS011;41667;51.922;8.850;2023-03-14T13:27:36;1.45;;;1.25;;
53391;SDS011;41667;51.922;8.850;2023-03-14T13:30:13;5.90;;;1.77;;
53391;SDS011;41667;51.922;8.850;2023-03-14T13:32:41;3.72;;;1.40;;
53391;SDS011;41667;51.922;8.850;2023-03-14T13:35:14;5.22;;;1.67;;
53391;SDS011;41667;51.922;8.850;2023-03-14T13:37:39;6.65;;;1.75;;
53391;SDS011;41667;51.922;8.850;2023-03-14T13:40:04;3.75;;;1.65;;
53391;SDS011;41667;51.922;8.850;2023-03-14T13:42:30;8.02;;;1.65;;
53391;SDS011;41667;51.922;8.850;2023-03-14T13:44:55;6.78;;;1.80;;
53391;SDS011;41667;51.922;8.850;2023-03-14T13:47:22;3.55;;;1.02;;
53391;SDS011;41667;51.922;8.850;2023-03-14T13:49:48;3.58;;;1.17;;
53391;SDS011;41667;51.922;8.850;2023-03-14T13:52:29;5.55;;;1.52;;
53391;SDS011;41667;51.922;8.850;2023-03-14T13:54:56;3.72;;;1.58;;
53391;SDS011;41667;51.922;8.850;2023-03-14T13:57:21;4.43;;;1.42;;
53391;SDS011;41667;51.922;8.850;2023-03-14T14:00:05;11.45;;;2.05;;
53391;SDS011;41667;51.922;8.850;2023-03-14T14:02:32;4.68;;;1.08;;
53391;SDS011;41667;51.922;8.850;2023-03-14T14:04:58;7.45;;;2.78;;
53391;SDS011;41667;51.922;8.850;2023-03-14T14:07:23;5.47;;;2.30;;
53391;SDS011;41667;51.922;8.850;2023-03-14T14:09:49;11.90;;;3.45;;
53391;SDS011;41667;51.922;8.850;2023-03-14T14:12:28;8.82;;;1.70;;
53391;SDS011;41667;51.922;8.850;2023-03-14T14:15:01;9.77;;;2.00;;
53391;SDS011;41667;51.922;8.850;2023-03-14T14:17:31;9.95;;;1.88;;
53391;SDS011;41667;51.922;8.850;2023-03-14T14:19:57;10.05;;;1.77;;
53391;SDS011;41667;51.922;8.850;2023-03-14T14:22:23;10.98;;;1.95;;
53391;SDS011;41667;51.922;8.850;2023-03-14T14:24:49;10.98;;;1.70;;
53391;SDS011;41667;51.922;8.850;2023-03-14T14:27:17;14.05;;;2.30;;
53391;SDS011;41667;51.922;8.850;2023-03-14T14:29:55;8.60;;;3.05;;
53391;SDS011;41667;51.922;8.850;2023-03-14T14:32:21;12.43;;;3.10;;
53391;SDS011;41667;51.922;8.850;2023-03-14T14:34:47;7.03;;;1.90;;
53391;SDS011;41667;51.922;8.850;2023-03-14T14:37:27;7.70;;;1.67;;
53391;SDS011;41667;51.922;8.850;2023-03-14T14:39:57;6.63;;;1.42;;
53391;SDS011;41667;51.922;8.850;2023-03-14T14:42:30;2.45;;;1.70;;
53391;SDS011;41667;51.922;8.850;2023-03-14T14:44:56;9.10;;;1.95;;
53391;SDS011;41667;51.922;8.850;2023-03-14T14:47:23;5.53;;;1.38;;
53391;SDS011;41667;51.922;8.850;2023-03-14T14:49:49;7.78;;;1.98;;
53391;SDS011;41667;51.922;8.850;2023-03-14T14:52:16;4.63;;;2.00;;
53391;SDS011;41667;51.922;8.850;2023-03-14T14:57:22;11.07;;;1.90;;
53391;SDS011;41667;51.922;8.850;2023-03-14T14:59:50;4.95;;;1.60;;
53391;SDS011;41667;51.922;8.850;2023-03-14T15:04:49;6.38;;;1.55;;
53391;SDS011;41667;51.922;8.850;2023-03-14T15:07:14;9.30;;;2.03;;
53391;SDS011;41667;51.922;8.850;2023-03-14T15:09:41;3.27;;;1.20;;
53391;SDS011;41667;51.922;8.850;2023-03-14T15:12:06;3.60;;;2.03;;
53391;SDS011;41667;51.922;8.850;2023-03-14T15:14:32;7.47;;;1.65;;
53391;SDS011;41667;51.922;8.850;2023-03-14T15:16:57;5.88;;;1.58;;
53391;SDS011;41667;51.922;8.850;2023-03-14T15:19:24;10.00;;;2.10;;
53391;SDS011;41667;51.922;8.850;2023-03-14T15:21:51;5.78;;;1.83;;
53391;SDS011;41667;51.922;8.850;2023-03-14T15:24:16;7.95;;;2.10;;
53391;SDS011;41667;51.922;8.850;2023-03-14T15:26:41;6.65;;;1.30;;
53391;SDS011;41667;51.922;8.850;2023-03-14T15:29:09;7.93;;;1.75;;
53391;SDS011;41667;51.922;8.850;2023-03-14T15:31:36;7.55;;;1.67;;
53391;SDS011;41667;51.922;8.850;2023-03-14T15:34:02;5.97;;;1.65;;
53391;SDS011;41667;51.922;8.850;2023-03-14T15:36:28;4.40;;;1.13;;